sensor_id;sensor_type;location;lat;lon;timestamp;P1;durP1;ratioP1;P2;durP2;ratioP2
11539;SDS011;5826;54.756;9.192;2022-12-16T00:01:45;3.43;;;1.60;;
11539;SDS011;5826;54.756;9.192;2022-12-16T00:04:10;1.77;;;1.33;;
11539;SDS011;5826;54.756;9.192;2022-12-16T00:06:36;2.90;;;1.53;;
11539;SDS011;5826;54.756;9.192;2022-12-16T00:09:01;2.33;;;1.50;;
11539;SDS011;5826;54.756;9.192;2022-12-16T00:11:27;2.17;;;1.37;;
11539;SDS011;5826;54.756;9.192;2022-12-16T00:13:55;1.60;;;1.20;;
11539;SDS011;5826;54.756;9.192;2022-12-16T00:16:21;2.70;;;1.40;;
11539;SDS011;5826;54.756;9.192;2022-12-16T00:18:47;1.63;;;1.20;;
11539;SDS011;5826;54.756;9.192;2022-12-16T00:21:12;1.37;;;1.10;;
11539;SDS011;5826;54.756;9.192;2022-12-16T00:23:38;1.60;;;1.40;;
11539;SDS011;5826;54.756;9.192;2022-12-16T00:26:08;1.60;;;1.40;;
11539;SDS011;5826;54.756;9.192;2022-12-16T00:28:34;2.43;;;1.50;;
11539;SDS011;5826;54.756;9.192;2022-12-16T00:31:00;2.83;;;1.60;;
11539;SDS011;5826;54.756;9.192;2022-12-16T00:33:25;2.43;;;1.30;;
11539;SDS011;5826;54.756;9.192;2022-12-16T00:35:52;1.60;;;1.50;;
11539;SDS011;5826;54.756;9.192;2022-12-16T00:38:18;2.10;;;1.43;;
11539;SDS011;5826;54.756;9.192;2022-12-16T00:40:44;2.23;;;1.47;;
11539;SDS011;5826;54.756;9.192;2022-12-16T00:43:09;1.57;;;1.37;;
11539;SDS011;5826;54.756;9.192;2022-12-16T00:45:35;1.80;;;1.50;;
11539;SDS011;5826;54.756;9.192;2022-12-16T00:48:01;1.80;;;1.40;;
11539;SDS011;5826;54.756;9.192;2022-12-16T00:50:27;3.53;;;1.70;;
11539;SDS011;5826;54.756;9.192;2022-12-16T00:52:52;2.00;;;1.70;;
11539;SDS011;5826;54.756;9.192;2022-12-16T00:55:18;3.10;;;1.67;;
11539;SDS011;5826;54.756;9.192;2022-12-16T00:57:44;2.20;;;1.60;;
11539;SDS011;5826;54.756;9.192;2022-12-16T01:00:10;2.60;;;1.90;;
11539;SDS011;5826;54.756;9.192;2022-12-16T01:02:41;3.10;;;2.00;;
11539;SDS011;5826;54.756;9.192;2022-12-16T01:05:08;2.50;;;1.60;;
11539;SDS011;5826;54.756;9.192;2022-12-16T01:07:35;2.60;;;2.07;;
11539;SDS011;5826;54.756;9.192;2022-12-16T01:10:01;2.80;;;2.00;;
11539;SDS011;5826;54.756;9.192;2022-12-16T01:12:28;2.60;;;2.03;;
11539;SDS011;5826;54.756;9.192;2022-12-16T01:14:53;2.53;;;2.00;;
11539;SDS011;5826;54.756;9.192;2022-12-16T01:17:19;3.63;;;2.10;;
11539;SDS011;5826;54.756;9.192;2022-12-16T01:19:44;2.77;;;2.00;;
11539;SDS011;5826;54.756;9.192;2022-12-16T01:22:10;3.37;;;2.40;;
11539;SDS011;5826;54.756;9.192;2022-12-16T01:24:36;5.03;;;2.53;;
11539;SDS011;5826;54.756;9.192;2022-12-16T01:27:01;3.70;;;2.47;;
11539;SDS011;5826;54.756;9.192;2022-12-16T01:29:27;3.33;;;2.40;;
11539;SDS011;5826;54.756;9.192;2022-12-16T01:31:52;2.87;;;2.23;;
11539;SDS011;5826;54.756;9.192;2022-12-16T01:34:18;3.07;;;2.17;;
11539;SDS011;5826;54.756;9.192;2022-12-16T01:36:43;2.57;;;2.10;;
11539;SDS011;5826;54.756;9.192;2022-12-16T01:39:09;2.37;;;2.10;;
11539;SDS011;5826;54.756;9.192;2022-12-16T01:41:35;3.47;;;2.47;;
11539;SDS011;5826;54.756;9.192;2022-12-16T01:44:14;2.50;;;2.30;;
11539;SDS011;5826;54.756;9.192;2022-12-16T01:46:42;3.67;;;2.57;;
11539;SDS011;5826;54.756;9.192;2022-12-16T01:49:18;2.73;;;2.20;;
11539;SDS011;5826;54.756;9.192;2022-12-16T01:51:50;3.10;;;2.27;;
11539;SDS011;5826;54.756;9.192;2022-12-16T01:54:17;2.40;;;1.90;;
11539;SDS011;5826;54.756;9.192;2022-12-16T01:56:55;2.07;;;1.87;;
11539;SDS011;5826;54.756;9.192;2022-12-16T01:59:24;2.17;;;1.87;;
11539;SDS011;5826;54.756;9.192;2022-12-16T02:01:52;2.57;;;1.97;;
11539;SDS011;5826;54.756;9.192;2022-12-16T02:04:18;2.00;;;1.80;;
11539;SDS011;5826;54.756;9.192;2022-12-16T02:06:43;2.50;;;2.00;;
11539;SDS011;5826;54.756;9.192;2022-12-16T02:09:10;2.23;;;1.80;;
11539;SDS011;5826;54.756;9.192;2022-12-16T02:14:51;2.40;;;2.00;;
11539;SDS011;5826;54.756;9.192;2022-12-16T02:17:43;2.67;;;2.23;;
11539;SDS011;5826;54.756;9.192;2022-12-16T02:26:10;1.70;;;1.60;;
11539;SDS011;5826;54.756;9.192;2022-12-16T02:31:43;2.57;;;1.87;;
11539;SDS011;5826;54.756;9.192;2022-12-16T02:34:36;2.30;;;1.90;;
11539;SDS011;5826;54.756;9.192;2022-12-16T02:40:35;2.17;;;1.80;;
11539;SDS011;5826;54.756;9.192;2022-12-16T02:43:22;3.73;;;1.97;;
11539;SDS011;5826;54.756;9.192;2022-12-16T02:46:05;2.60;;;1.93;;
11539;SDS011;5826;54.756;9.192;2022-12-16T02:48:32;2.50;;;1.90;;
11539;SDS011;5826;54.756;9.192;2022-12-16T02:50:58;2.33;;;1.90;;
11539;SDS011;5826;54.756;9.192;2022-12-16T02:53:23;3.90;;;2.00;;
11539;SDS011;5826;54.756;9.192;2022-12-16T02:58:49;2.20;;;1.87;;
11539;SDS011;5826;54.756;9.192;2022-12-16T03:01:19;3.23;;;2.20;;
11539;SDS011;5826;54.756;9.192;2022-12-16T03:04:01;2.53;;;1.83;;
11539;SDS011;5826;54.756;9.192;2022-12-16T03:06:39;2.23;;;1.70;;
11539;SDS011;5826;54.756;9.192;2022-12-16T03:09:10;2.20;;;1.90;;
11539;SDS011;5826;54.756;9.192;2022-12-16T03:11:38;2.60;;;2.20;;
11539;SDS011;5826;54.756;9.192;2022-12-16T03:14:06;3.17;;;2.10;;
11539;SDS011;5826;54.756;9.192;2022-12-16T03:16:34;2.67;;;2.13;;
11539;SDS011;5826;54.756;9.192;2022-12-16T03:19:02;3.93;;;2.13;;
11539;SDS011;5826;54.756;9.192;2022-12-16T03:21:32;2.37;;;2.10;;
11539;SDS011;5826;54.756;9.192;2022-12-16T03:24:22;2.00;;;1.80;;
11539;SDS011;5826;54.756;9.192;2022-12-16T03:32:21;3.20;;;2.17;;
11539;SDS011;5826;54.756;9.192;2022-12-16T03:34:55;2.17;;;1.90;;
11539;SDS011;5826;54.756;9.192;2022-12-16T03:37:30;3.23;;;2.20;;
11539;SDS011;5826;54.756;9.192;2022-12-16T03:39:59;2.67;;;2.07;;
11539;SDS011;5826;54.756;9.192;2022-12-16T03:42:27;3.70;;;2.07;;
11539;SDS011;5826;54.756;9.192;2022-12-16T03:44:53;2.13;;;1.50;;
11539;SDS011;5826;54.756;9.192;2022-12-16T03:47:18;2.27;;;1.77;;
11539;SDS011;5826;54.756;9.192;2022-12-16T03:49:44;2.90;;;1.90;;
11539;SDS011;5826;54.756;9.192;2022-12-16T03:52:10;2.00;;;1.67;;
11539;SDS011;5826;54.756;9.192;2022-12-16T03:54:35;3.00;;;1.70;;
11539;SDS011;5826;54.756;9.192;2022-12-16T03:57:01;2.93;;;2.13;;
11539;SDS011;5826;54.756;9.192;2022-12-16T03:59:27;1.50;;;1.40;;
11539;SDS011;5826;54.756;9.192;2022-12-16T04:01:52;2.63;;;1.70;;
11539;SDS011;5826;54.756;9.192;2022-12-16T04:04:18;2.43;;;1.80;;
11539;SDS011;5826;54.756;9.192;2022-12-16T04:06:44;2.70;;;1.60;;
11539;SDS011;5826;54.756;9.192;2022-12-16T04:09:09;2.37;;;1.70;;
11539;SDS011;5826;54.756;9.192;2022-12-16T04:11:35;1.57;;;1.40;;
11539;SDS011;5826;54.756;9.192;2022-12-16T04:14:19;2.27;;;1.63;;
11539;SDS011;5826;54.756;9.192;2022-12-16T04:17:04;3.17;;;2.03;;
11539;SDS011;5826;54.756;9.192;2022-12-16T04:19:48;2.40;;;1.63;;
11539;SDS011;5826;54.756;9.192;2022-12-16T04:22:37;2.30;;;1.63;;
11539;SDS011;5826;54.756;9.192;2022-12-16T04:25:28;1.97;;;1.50;;
11539;SDS011;5826;54.756;9.192;2022-12-16T04:27:59;3.23;;;1.80;;
11539;SDS011;5826;54.756;9.192;2022-12-16T04:30:25;3.27;;;1.63;;
11539;SDS011;5826;54.756;9.192;2022-12-16T04:32:53;2.33;;;2.00;;
11539;SDS011;5826;54.756;9.192;2022-12-16T04:35:41;2.53;;;1.40;;
11539;SDS011;5826;54.756;9.192;2022-12-16T04:38:25;2.23;;;1.90;;
11539;SDS011;5826;54.756;9.192;2022-12-16T04:41:09;3.17;;;2.30;;
11539;SDS011;5826;54.756;9.192;2022-12-16T04:43:53;2.37;;;1.73;;
11539;SDS011;5826;54.756;9.192;2022-12-16T04:46:37;4.47;;;2.20;;
11539;SDS011;5826;54.756;9.192;2022-12-16T04:49:21;2.00;;;1.80;;
11539;SDS011;5826;54.756;9.192;2022-12-16T04:52:05;2.67;;;2.30;;
11539;SDS011;5826;54.756;9.192;2022-12-16T04:54:50;2.80;;;1.83;;
11539;SDS011;5826;54.756;9.192;2022-12-16T04:57:34;3.60;;;2.10;;
11539;SDS011;5826;54.756;9.192;2022-12-16T05:00:18;2.40;;;2.17;;
11539;SDS011;5826;54.756;9.192;2022-12-16T05:03:03;2.37;;;1.70;;
11539;SDS011;5826;54.756;9.192;2022-12-16T05:05:47;2.57;;;2.00;;
11539;SDS011;5826;54.756;9.192;2022-12-16T05:08:31;2.57;;;2.10;;
11539;SDS011;5826;54.756;9.192;2022-12-16T05:11:15;3.23;;;2.33;;
11539;SDS011;5826;54.756;9.192;2022-12-16T05:13:59;4.30;;;3.00;;
11539;SDS011;5826;54.756;9.192;2022-12-16T05:16:43;3.70;;;3.10;;
11539;SDS011;5826;54.756;9.192;2022-12-16T05:19:27;3.37;;;3.07;;
11539;SDS011;5826;54.756;9.192;2022-12-16T05:22:11;3.87;;;2.80;;
11539;SDS011;5826;54.756;9.192;2022-12-16T05:24:55;3.90;;;2.77;;
11539;SDS011;5826;54.756;9.192;2022-12-16T05:27:39;2.97;;;2.53;;
11539;SDS011;5826;54.756;9.192;2022-12-16T05:30:23;3.30;;;2.43;;
11539;SDS011;5826;54.756;9.192;2022-12-16T05:33:07;4.33;;;2.47;;
11539;SDS011;5826;54.756;9.192;2022-12-16T05:35:51;3.33;;;2.70;;
11539;SDS011;5826;54.756;9.192;2022-12-16T05:38:35;3.93;;;2.50;;
11539;SDS011;5826;54.756;9.192;2022-12-16T05:41:19;3.10;;;2.40;;
11539;SDS011;5826;54.756;9.192;2022-12-16T05:44:03;3.70;;;2.43;;
11539;SDS011;5826;54.756;9.192;2022-12-16T05:46:47;4.10;;;2.87;;
11539;SDS011;5826;54.756;9.192;2022-12-16T05:49:31;2.70;;;2.33;;
11539;SDS011;5826;54.756;9.192;2022-12-16T05:52:17;3.63;;;2.70;;
11539;SDS011;5826;54.756;9.192;2022-12-16T05:55:01;5.67;;;2.80;;
11539;SDS011;5826;54.756;9.192;2022-12-16T05:57:49;4.00;;;2.40;;
11539;SDS011;5826;54.756;9.192;2022-12-16T06:00:33;4.90;;;2.57;;
11539;SDS011;5826;54.756;9.192;2022-12-16T06:03:18;3.13;;;2.60;;
11539;SDS011;5826;54.756;9.192;2022-12-16T06:06:02;3.90;;;2.67;;
11539;SDS011;5826;54.756;9.192;2022-12-16T06:08:46;3.73;;;2.47;;
11539;SDS011;5826;54.756;9.192;2022-12-16T06:11:30;3.03;;;2.40;;
11539;SDS011;5826;54.756;9.192;2022-12-16T06:14:14;3.20;;;2.40;;
11539;SDS011;5826;54.756;9.192;2022-12-16T06:16:58;3.97;;;2.77;;
11539;SDS011;5826;54.756;9.192;2022-12-16T06:19:42;3.13;;;2.53;;
11539;SDS011;5826;54.756;9.192;2022-12-16T06:22:26;3.87;;;2.90;;
11539;SDS011;5826;54.756;9.192;2022-12-16T06:25:10;3.63;;;2.80;;
11539;SDS011;5826;54.756;9.192;2022-12-16T06:27:54;4.17;;;3.00;;
11539;SDS011;5826;54.756;9.192;2022-12-16T06:30:38;4.10;;;2.80;;
11539;SDS011;5826;54.756;9.192;2022-12-16T06:33:22;5.37;;;3.10;;
11539;SDS011;5826;54.756;9.192;2022-12-16T06:36:06;4.77;;;2.93;;
11539;SDS011;5826;54.756;9.192;2022-12-16T06:38:50;4.93;;;3.00;;
11539;SDS011;5826;54.756;9.192;2022-12-16T06:41:34;3.73;;;3.00;;
11539;SDS011;5826;54.756;9.192;2022-12-16T06:44:18;3.73;;;2.87;;
11539;SDS011;5826;54.756;9.192;2022-12-16T06:47:02;4.70;;;2.90;;
11539;SDS011;5826;54.756;9.192;2022-12-16T06:49:46;4.87;;;3.40;;
11539;SDS011;5826;54.756;9.192;2022-12-16T06:52:30;4.70;;;3.23;;
11539;SDS011;5826;54.756;9.192;2022-12-16T06:55:14;3.87;;;2.90;;
11539;SDS011;5826;54.756;9.192;2022-12-16T06:57:59;4.23;;;2.73;;
11539;SDS011;5826;54.756;9.192;2022-12-16T07:00:44;5.03;;;3.50;;
11539;SDS011;5826;54.756;9.192;2022-12-16T07:03:28;5.23;;;3.80;;
11539;SDS011;5826;54.756;9.192;2022-12-16T07:06:12;5.77;;;3.33;;
11539;SDS011;5826;54.756;9.192;2022-12-16T07:08:56;4.83;;;3.20;;
11539;SDS011;5826;54.756;9.192;2022-12-16T07:11:40;4.43;;;2.90;;
11539;SDS011;5826;54.756;9.192;2022-12-16T07:14:24;5.47;;;3.00;;
11539;SDS011;5826;54.756;9.192;2022-12-16T07:17:28;4.20;;;2.93;;
11539;SDS011;5826;54.756;9.192;2022-12-16T07:20:12;3.10;;;2.67;;
11539;SDS011;5826;54.756;9.192;2022-12-16T07:22:56;4.10;;;3.07;;
11539;SDS011;5826;54.756;9.192;2022-12-16T07:25:40;4.80;;;2.93;;
11539;SDS011;5826;54.756;9.192;2022-12-16T07:28:24;4.37;;;2.77;;
11539;SDS011;5826;54.756;9.192;2022-12-16T07:31:08;3.70;;;3.07;;
11539;SDS011;5826;54.756;9.192;2022-12-16T07:33:52;4.17;;;3.03;;
11539;SDS011;5826;54.756;9.192;2022-12-16T07:36:36;3.20;;;2.67;;
11539;SDS011;5826;54.756;9.192;2022-12-16T07:39:20;3.70;;;2.80;;
11539;SDS011;5826;54.756;9.192;2022-12-16T07:42:04;3.97;;;2.77;;
11539;SDS011;5826;54.756;9.192;2022-12-16T07:44:48;3.87;;;2.53;;
11539;SDS011;5826;54.756;9.192;2022-12-16T07:47:32;3.43;;;2.90;;
11539;SDS011;5826;54.756;9.192;2022-12-16T07:50:16;4.53;;;3.10;;
11539;SDS011;5826;54.756;9.192;2022-12-16T07:53:00;5.03;;;3.37;;
11539;SDS011;5826;54.756;9.192;2022-12-16T07:55:44;3.97;;;2.93;;
11539;SDS011;5826;54.756;9.192;2022-12-16T07:58:28;4.40;;;3.10;;
11539;SDS011;5826;54.756;9.192;2022-12-16T08:01:13;5.37;;;3.80;;
11539;SDS011;5826;54.756;9.192;2022-12-16T08:03:57;5.23;;;3.53;;
11539;SDS011;5826;54.756;9.192;2022-12-16T08:06:41;5.70;;;3.20;;
11539;SDS011;5826;54.756;9.192;2022-12-16T08:09:25;5.33;;;3.50;;
11539;SDS011;5826;54.756;9.192;2022-12-16T08:12:09;4.77;;;3.40;;
11539;SDS011;5826;54.756;9.192;2022-12-16T08:14:53;5.53;;;3.90;;
11539;SDS011;5826;54.756;9.192;2022-12-16T08:17:37;5.50;;;3.70;;
11539;SDS011;5826;54.756;9.192;2022-12-16T08:20:25;7.23;;;3.63;;
11539;SDS011;5826;54.756;9.192;2022-12-16T08:23:09;4.00;;;3.00;;
11539;SDS011;5826;54.756;9.192;2022-12-16T08:25:53;4.47;;;3.50;;
11539;SDS011;5826;54.756;9.192;2022-12-16T08:28:37;4.27;;;2.93;;
11539;SDS011;5826;54.756;9.192;2022-12-16T08:31:21;4.17;;;3.23;;
11539;SDS011;5826;54.756;9.192;2022-12-16T08:34:05;4.50;;;3.20;;
11539;SDS011;5826;54.756;9.192;2022-12-16T08:36:49;4.00;;;2.80;;
11539;SDS011;5826;54.756;9.192;2022-12-16T08:39:33;4.53;;;3.30;;
11539;SDS011;5826;54.756;9.192;2022-12-16T08:42:17;5.00;;;3.03;;
11539;SDS011;5826;54.756;9.192;2022-12-16T08:45:01;4.43;;;3.40;;
11539;SDS011;5826;54.756;9.192;2022-12-16T08:47:45;5.10;;;2.83;;
11539;SDS011;5826;54.756;9.192;2022-12-16T08:50:29;5.27;;;3.40;;
11539;SDS011;5826;54.756;9.192;2022-12-16T08:53:13;5.70;;;3.53;;
11539;SDS011;5826;54.756;9.192;2022-12-16T08:55:57;5.17;;;3.27;;
11539;SDS011;5826;54.756;9.192;2022-12-16T08:58:41;6.37;;;3.30;;
11539;SDS011;5826;54.756;9.192;2022-12-16T09:01:25;5.13;;;3.27;;
11539;SDS011;5826;54.756;9.192;2022-12-16T09:04:09;5.33;;;3.40;;
11539;SDS011;5826;54.756;9.192;2022-12-16T09:06:53;4.80;;;3.40;;
11539;SDS011;5826;54.756;9.192;2022-12-16T09:09:37;5.03;;;3.40;;
11539;SDS011;5826;54.756;9.192;2022-12-16T09:12:21;5.70;;;3.50;;
11539;SDS011;5826;54.756;9.192;2022-12-16T09:15:06;4.30;;;3.53;;
11539;SDS011;5826;54.756;9.192;2022-12-16T09:17:53;6.53;;;3.97;;
11539;SDS011;5826;54.756;9.192;2022-12-16T09:20:39;6.57;;;4.00;;
11539;SDS011;5826;54.756;9.192;2022-12-16T09:23:23;6.73;;;3.90;;
11539;SDS011;5826;54.756;9.192;2022-12-16T09:26:08;6.33;;;3.90;;
11539;SDS011;5826;54.756;9.192;2022-12-16T09:28:52;4.63;;;3.53;;
11539;SDS011;5826;54.756;9.192;2022-12-16T09:31:36;6.03;;;3.77;;
11539;SDS011;5826;54.756;9.192;2022-12-16T09:34:20;5.20;;;3.80;;
11539;SDS011;5826;54.756;9.192;2022-12-16T09:37:04;5.90;;;3.63;;
11539;SDS011;5826;54.756;9.192;2022-12-16T09:39:48;5.20;;;3.83;;
11539;SDS011;5826;54.756;9.192;2022-12-16T09:42:48;5.10;;;3.80;;
11539;SDS011;5826;54.756;9.192;2022-12-16T09:45:43;6.10;;;3.83;;
11539;SDS011;5826;54.756;9.192;2022-12-16T09:49:05;4.40;;;3.40;;
11539;SDS011;5826;54.756;9.192;2022-12-16T09:51:59;4.73;;;3.43;;
11539;SDS011;5826;54.756;9.192;2022-12-16T09:54:46;7.77;;;4.60;;
11539;SDS011;5826;54.756;9.192;2022-12-16T09:57:31;4.10;;;3.37;;
11539;SDS011;5826;54.756;9.192;2022-12-16T10:00:22;5.50;;;3.63;;
11539;SDS011;5826;54.756;9.192;2022-12-16T10:03:18;6.17;;;4.00;;
11539;SDS011;5826;54.756;9.192;2022-12-16T10:06:10;5.80;;;3.90;;
11539;SDS011;5826;54.756;9.192;2022-12-16T10:09:26;4.63;;;3.60;;
11539;SDS011;5826;54.756;9.192;2022-12-16T10:12:31;5.93;;;3.87;;
11539;SDS011;5826;54.756;9.192;2022-12-16T10:15:47;6.23;;;4.43;;
11539;SDS011;5826;54.756;9.192;2022-12-16T10:18:46;5.50;;;4.30;;
11539;SDS011;5826;54.756;9.192;2022-12-16T10:24:49;6.40;;;4.30;;
11539;SDS011;5826;54.756;9.192;2022-12-16T10:31:17;6.83;;;3.93;;
11539;SDS011;5826;54.756;9.192;2022-12-16T10:34:02;6.57;;;4.37;;
11539;SDS011;5826;54.756;9.192;2022-12-16T10:36:51;5.33;;;4.03;;
11539;SDS011;5826;54.756;9.192;2022-12-16T10:39:37;5.13;;;3.97;;
11539;SDS011;5826;54.756;9.192;2022-12-16T10:42:27;5.57;;;3.97;;
11539;SDS011;5826;54.756;9.192;2022-12-16T10:45:21;6.17;;;4.27;;
11539;SDS011;5826;54.756;9.192;2022-12-16T10:48:10;5.87;;;4.47;;
11539;SDS011;5826;54.756;9.192;2022-12-16T10:50:54;6.30;;;4.67;;
11539;SDS011;5826;54.756;9.192;2022-12-16T10:54:10;7.87;;;5.03;;
11539;SDS011;5826;54.756;9.192;2022-12-16T10:57:04;6.40;;;4.30;;
11539;SDS011;5826;54.756;9.192;2022-12-16T11:00:08;6.93;;;4.50;;
11539;SDS011;5826;54.756;9.192;2022-12-16T11:03:16;5.57;;;4.20;;
11539;SDS011;5826;54.756;9.192;2022-12-16T11:06:03;5.60;;;4.20;;
11539;SDS011;5826;54.756;9.192;2022-12-16T11:08:48;6.10;;;4.20;;
11539;SDS011;5826;54.756;9.192;2022-12-16T11:11:32;6.23;;;4.20;;
11539;SDS011;5826;54.756;9.192;2022-12-16T11:17:19;5.53;;;4.57;;
11539;SDS011;5826;54.756;9.192;2022-12-16T11:23:41;6.07;;;4.63;;
11539;SDS011;5826;54.756;9.192;2022-12-16T11:26:12;5.00;;;4.10;;
11539;SDS011;5826;54.756;9.192;2022-12-16T11:29:04;6.27;;;4.30;;
11539;SDS011;5826;54.756;9.192;2022-12-16T11:31:53;8.30;;;4.47;;
11539;SDS011;5826;54.756;9.192;2022-12-16T11:34:53;6.23;;;4.43;;
11539;SDS011;5826;54.756;9.192;2022-12-16T11:37:39;6.23;;;3.93;;
11539;SDS011;5826;54.756;9.192;2022-12-16T11:40:24;5.03;;;3.93;;
11539;SDS011;5826;54.756;9.192;2022-12-16T11:43:11;7.27;;;4.13;;
11539;SDS011;5826;54.756;9.192;2022-12-16T11:45:57;5.43;;;3.87;;
11539;SDS011;5826;54.756;9.192;2022-12-16T11:48:48;5.57;;;3.97;;
11539;SDS011;5826;54.756;9.192;2022-12-16T11:51:37;6.93;;;4.10;;
11539;SDS011;5826;54.756;9.192;2022-12-16T11:54:27;5.73;;;4.00;;
11539;SDS011;5826;54.756;9.192;2022-12-16T11:57:32;5.47;;;4.13;;
11539;SDS011;5826;54.756;9.192;2022-12-16T12:00:25;5.40;;;3.80;;
11539;SDS011;5826;54.756;9.192;2022-12-16T12:03:10;4.90;;;3.70;;
11539;SDS011;5826;54.756;9.192;2022-12-16T12:06:09;5.10;;;3.80;;
11539;SDS011;5826;54.756;9.192;2022-12-16T12:09:05;4.83;;;4.03;;
11539;SDS011;5826;54.756;9.192;2022-12-16T12:15:23;5.13;;;4.13;;
11539;SDS011;5826;54.756;9.192;2022-12-16T12:21:23;4.97;;;4.07;;
11539;SDS011;5826;54.756;9.192;2022-12-16T12:30:05;5.90;;;4.10;;
11539;SDS011;5826;54.756;9.192;2022-12-16T12:36:18;4.73;;;3.87;;
11539;SDS011;5826;54.756;9.192;2022-12-16T12:42:39;6.53;;;4.83;;
11539;SDS011;5826;54.756;9.192;2022-12-16T12:45:45;5.80;;;4.77;;
11539;SDS011;5826;54.756;9.192;2022-12-16T12:48:49;6.43;;;5.20;;
11539;SDS011;5826;54.756;9.192;2022-12-16T12:54:36;5.97;;;4.60;;
11539;SDS011;5826;54.756;9.192;2022-12-16T12:57:44;5.17;;;4.40;;
11539;SDS011;5826;54.756;9.192;2022-12-16T13:00:33;6.23;;;4.20;;
11539;SDS011;5826;54.756;9.192;2022-12-16T13:03:39;5.17;;;3.93;;
11539;SDS011;5826;54.756;9.192;2022-12-16T13:06:29;4.53;;;3.80;;
11539;SDS011;5826;54.756;9.192;2022-12-16T13:12:23;6.33;;;4.80;;
11539;SDS011;5826;54.756;9.192;2022-12-16T13:15:10;6.80;;;4.40;;
11539;SDS011;5826;54.756;9.192;2022-12-16T13:18:11;6.17;;;4.77;;
11539;SDS011;5826;54.756;9.192;2022-12-16T13:21:01;6.67;;;5.27;;
11539;SDS011;5826;54.756;9.192;2022-12-16T13:23:46;6.17;;;4.93;;
11539;SDS011;5826;54.756;9.192;2022-12-16T13:26:31;7.70;;;5.37;;
11539;SDS011;5826;54.756;9.192;2022-12-16T13:29:27;7.90;;;5.70;;
11539;SDS011;5826;54.756;9.192;2022-12-16T13:32:22;9.33;;;6.10;;
11539;SDS011;5826;54.756;9.192;2022-12-16T13:37:55;7.70;;;5.90;;
11539;SDS011;5826;54.756;9.192;2022-12-16T13:40:59;8.57;;;5.47;;
11539;SDS011;5826;54.756;9.192;2022-12-16T13:49:41;6.77;;;4.90;;
11539;SDS011;5826;54.756;9.192;2022-12-16T13:58:35;7.10;;;5.33;;
11539;SDS011;5826;54.756;9.192;2022-12-16T14:01:33;8.90;;;6.30;;
11539;SDS011;5826;54.756;9.192;2022-12-16T14:04:39;9.37;;;6.40;;
11539;SDS011;5826;54.756;9.192;2022-12-16T14:07:28;8.10;;;5.80;;
11539;SDS011;5826;54.756;9.192;2022-12-16T14:13:09;6.57;;;5.10;;
11539;SDS011;5826;54.756;9.192;2022-12-16T14:16:29;7.80;;;5.63;;
11539;SDS011;5826;54.756;9.192;2022-12-16T14:25:19;8.40;;;6.13;;
11539;SDS011;5826;54.756;9.192;2022-12-16T14:31:29;9.37;;;5.90;;
11539;SDS011;5826;54.756;9.192;2022-12-16T14:34:18;9.70;;;5.93;;
11539;SDS011;5826;54.756;9.192;2022-12-16T14:37:12;7.87;;;5.97;;
11539;SDS011;5826;54.756;9.192;2022-12-16T14:40:19;8.87;;;5.90;;
11539;SDS011;5826;54.756;9.192;2022-12-16T14:43:09;8.87;;;6.10;;
11539;SDS011;5826;54.756;9.192;2022-12-16T14:45:55;8.50;;;5.87;;
11539;SDS011;5826;54.756;9.192;2022-12-16T14:48:39;8.53;;;6.33;;
11539;SDS011;5826;54.756;9.192;2022-12-16T14:51:33;8.03;;;6.03;;
11539;SDS011;5826;54.756;9.192;2022-12-16T14:54:25;8.13;;;5.83;;
11539;SDS011;5826;54.756;9.192;2022-12-16T14:57:17;7.73;;;5.80;;
11539;SDS011;5826;54.756;9.192;2022-12-16T15:03:41;9.60;;;6.03;;
11539;SDS011;5826;54.756;9.192;2022-12-16T15:06:02;9.37;;;5.80;;
11539;SDS011;5826;54.756;9.192;2022-12-16T15:08:53;7.53;;;5.60;;
11539;SDS011;5826;54.756;9.192;2022-12-16T15:11:40;7.93;;;5.30;;
11539;SDS011;5826;54.756;9.192;2022-12-16T15:14:29;7.93;;;5.10;;
11539;SDS011;5826;54.756;9.192;2022-12-16T15:17:24;6.47;;;4.80;;
11539;SDS011;5826;54.756;9.192;2022-12-16T15:20:15;6.63;;;4.57;;
11539;SDS011;5826;54.756;9.192;2022-12-16T15:23:13;8.20;;;4.70;;
11539;SDS011;5826;54.756;9.192;2022-12-16T15:26:03;6.27;;;4.83;;
11539;SDS011;5826;54.756;9.192;2022-12-16T15:28:48;5.47;;;4.40;;
11539;SDS011;5826;54.756;9.192;2022-12-16T15:31:34;7.53;;;4.90;;
11539;SDS011;5826;54.756;9.192;2022-12-16T15:40:00;6.97;;;4.73;;
11539;SDS011;5826;54.756;9.192;2022-12-16T15:42:48;7.50;;;4.77;;
11539;SDS011;5826;54.756;9.192;2022-12-16T15:45:33;8.07;;;5.87;;
11539;SDS011;5826;54.756;9.192;2022-12-16T15:48:28;7.83;;;5.67;;
11539;SDS011;5826;54.756;9.192;2022-12-16T15:51:49;7.27;;;5.23;;
11539;SDS011;5826;54.756;9.192;2022-12-16T15:54:27;10.07;;;5.83;;
11539;SDS011;5826;54.756;9.192;2022-12-16T15:57:25;7.80;;;5.70;;
11539;SDS011;5826;54.756;9.192;2022-12-16T16:00:18;9.37;;;6.93;;
11539;SDS011;5826;54.756;9.192;2022-12-16T16:03:15;9.47;;;6.73;;
11539;SDS011;5826;54.756;9.192;2022-12-16T16:06:14;10.33;;;6.97;;
11539;SDS011;5826;54.756;9.192;2022-12-16T16:09:00;9.60;;;7.13;;
11539;SDS011;5826;54.756;9.192;2022-12-16T16:11:54;8.47;;;6.20;;
11539;SDS011;5826;54.756;9.192;2022-12-16T16:14:38;8.60;;;6.20;;
11539;SDS011;5826;54.756;9.192;2022-12-16T16:17:22;9.30;;;6.40;;
11539;SDS011;5826;54.756;9.192;2022-12-16T16:20:08;8.27;;;6.43;;
11539;SDS011;5826;54.756;9.192;2022-12-16T16:22:57;8.70;;;6.50;;
11539;SDS011;5826;54.756;9.192;2022-12-16T16:25:41;8.33;;;5.93;;
11539;SDS011;5826;54.756;9.192;2022-12-16T16:28:25;7.87;;;5.60;;
11539;SDS011;5826;54.756;9.192;2022-12-16T16:31:09;7.20;;;5.47;;
11539;SDS011;5826;54.756;9.192;2022-12-16T16:33:53;10.20;;;6.57;;
11539;SDS011;5826;54.756;9.192;2022-12-16T16:36:37;13.73;;;8.17;;
11539;SDS011;5826;54.756;9.192;2022-12-16T16:39:21;18.50;;;10.73;;
11539;SDS011;5826;54.756;9.192;2022-12-16T16:42:06;33.23;;;14.80;;
11539;SDS011;5826;54.756;9.192;2022-12-16T16:44:51;32.90;;;15.03;;
11539;SDS011;5826;54.756;9.192;2022-12-16T16:47:35;23.53;;;11.30;;
11539;SDS011;5826;54.756;9.192;2022-12-16T16:50:20;15.03;;;9.80;;
11539;SDS011;5826;54.756;9.192;2022-12-16T16:53:04;13.57;;;9.33;;
11539;SDS011;5826;54.756;9.192;2022-12-16T16:55:52;12.90;;;9.33;;
11539;SDS011;5826;54.756;9.192;2022-12-16T16:58:36;11.30;;;8.43;;
11539;SDS011;5826;54.756;9.192;2022-12-16T17:01:20;13.13;;;8.70;;
11539;SDS011;5826;54.756;9.192;2022-12-16T17:04:04;12.57;;;9.63;;
11539;SDS011;5826;54.756;9.192;2022-12-16T17:06:48;14.70;;;9.70;;
11539;SDS011;5826;54.756;9.192;2022-12-16T17:09:33;12.00;;;9.17;;
11539;SDS011;5826;54.756;9.192;2022-12-16T17:12:21;11.47;;;9.00;;
11539;SDS011;5826;54.756;9.192;2022-12-16T17:15:19;9.77;;;8.00;;
11539;SDS011;5826;54.756;9.192;2022-12-16T17:18:05;9.97;;;7.87;;
11539;SDS011;5826;54.756;9.192;2022-12-16T17:20:50;10.87;;;8.30;;
11539;SDS011;5826;54.756;9.192;2022-12-16T17:23:34;12.63;;;8.23;;
11539;SDS011;5826;54.756;9.192;2022-12-16T17:26:18;12.80;;;7.67;;
11539;SDS011;5826;54.756;9.192;2022-12-16T17:29:03;10.07;;;7.17;;
11539;SDS011;5826;54.756;9.192;2022-12-16T17:31:48;9.10;;;6.50;;
11539;SDS011;5826;54.756;9.192;2022-12-16T17:34:32;9.77;;;6.33;;
11539;SDS011;5826;54.756;9.192;2022-12-16T17:37:16;9.23;;;6.10;;
11539;SDS011;5826;54.756;9.192;2022-12-16T17:40:00;8.20;;;5.90;;
11539;SDS011;5826;54.756;9.192;2022-12-16T17:42:44;7.43;;;5.40;;
11539;SDS011;5826;54.756;9.192;2022-12-16T17:45:28;7.50;;;5.17;;
11539;SDS011;5826;54.756;9.192;2022-12-16T17:48:12;8.20;;;5.93;;
11539;SDS011;5826;54.756;9.192;2022-12-16T17:50:57;7.63;;;5.80;;
11539;SDS011;5826;54.756;9.192;2022-12-16T17:53:43;9.10;;;6.93;;
11539;SDS011;5826;54.756;9.192;2022-12-16T17:56:27;10.97;;;7.23;;
11539;SDS011;5826;54.756;9.192;2022-12-16T17:59:11;11.47;;;7.40;;
11539;SDS011;5826;54.756;9.192;2022-12-16T18:01:55;10.37;;;7.70;;
11539;SDS011;5826;54.756;9.192;2022-12-16T18:04:39;10.90;;;7.97;;
11539;SDS011;5826;54.756;9.192;2022-12-16T18:07:23;13.13;;;8.37;;
11539;SDS011;5826;54.756;9.192;2022-12-16T18:10:07;14.97;;;9.83;;
11539;SDS011;5826;54.756;9.192;2022-12-16T18:12:51;18.23;;;11.20;;
11539;SDS011;5826;54.756;9.192;2022-12-16T18:15:37;14.67;;;10.00;;